createdAt,value
2023-03-26T00:00:34.471Z,68.69
2023-03-26T00:01:30.408Z,68.18
2023-03-26T00:02:27.703Z,68.69
2023-03-26T00:03:25.393Z,68.28
2023-03-26T00:04:30.903Z,67.97
2023-03-26T00:05:27.927Z,68.69
2023-03-26T00:06:25.032Z,68.18
2023-03-26T00:07:22.289Z,68.28
2023-03-26T00:08:19.124Z,68.28
2023-03-26T00:09:15.229Z,68.38
2023-03-26T00:10:12.665Z,68.18
2023-03-26T00:11:09.197Z,67.97
2023-03-26T00:12:16.558Z,68.38
2023-03-26T00:13:13.229Z,68.28
2023-03-26T00:14:10.235Z,68.69
2023-03-26T00:15:06.649Z,67.87
2023-03-26T00:16:02.519Z,67.87
2023-03-26T00:16:58.809Z,67.87
2023-03-26T00:17:44.164Z,68.08
2023-03-26T00:18:39.813Z,67.87
2023-03-26T00:19:37.025Z,68.18
2023-03-26T00:20:33.892Z,68.08
2023-03-26T00:21:30.101Z,68.08
2023-03-26T00:22:26.129Z,68.08
2023-03-26T00:23:22.557Z,67.87
2023-03-26T00:24:07.652Z,68.18
2023-03-26T00:25:16.905Z,68.08
2023-03-26T00:26:22.897Z,67.97
2023-03-26T00:27:19.883Z,67.57
2023-03-26T00:28:26.953Z,67.77
2023-03-26T00:29:22.497Z,67.67
2023-03-26T00:30:18.064Z,66.95
2023-03-26T00:31:13.673Z,66.95
2023-03-26T00:32:09.161Z,67.87
2023-03-26T00:33:04.721Z,67.77
2023-03-26T00:34:01.748Z,66.75
2023-03-26T00:34:57.324Z,67.05
2023-03-26T00:35:53.284Z,67.36
2023-03-26T00:36:59.706Z,66.75
2023-03-26T00:37:55.264Z,67.57
2023-03-26T00:38:50.823Z,66.95
2023-03-26T00:39:46.357Z,68.18
2023-03-26T00:40:42.382Z,68.08
2023-03-26T00:41:37.947Z,66.75
2023-03-26T00:42:33.520Z,67.26
2023-03-26T00:43:29.054Z,67.16
2023-03-26T00:44:24.599Z,67.16
2023-03-26T00:45:20.143Z,67.26
2023-03-26T00:46:15.831Z,67.16
2023-03-26T00:47:11.245Z,67.36
2023-03-26T00:48:06.846Z,66.95
2023-03-26T00:49:02.803Z,67.16
2023-03-26T00:49:58.359Z,67.46
2023-03-26T00:50:53.895Z,67.26
2023-03-26T00:51:49.953Z,67.05
2023-03-26T00:52:45.982Z,66.95
2023-03-26T00:53:41.518Z,67.16
2023-03-26T00:54:37.543Z,66.95
2023-03-26T00:55:33.102Z,67.26
2023-03-26T00:56:28.653Z,67.26
2023-03-26T00:57:34.880Z,67.16
2023-03-26T00:58:20.235Z,68.08
2023-03-26T00:59:15.808Z,67.87
2023-03-26T01:00:11.357Z,67.97
2023-03-26T01:01:07.417Z,67.87
2023-03-26T01:02:03.173Z,67.77
2023-03-26T01:02:58.609Z,67.57
2023-03-26T01:04:06.874Z,67.97
2023-03-26T01:04:49.618Z,67.77
2023-03-26T01:05:45.166Z,67.97
2023-03-26T01:06:41.183Z,68.01
2023-03-26T01:07:36.732Z,68.08
2023-03-26T01:08:32.299Z,67.16
2023-03-26T01:09:28.322Z,67.26
2023-03-26T01:10:24.338Z,67.97
2023-03-26T01:11:20.879Z,68.08
2023-03-26T01:12:16.415Z,67.87
2023-03-26T01:13:12.431Z,67.87
2023-03-26T01:14:07.976Z,67.97
2023-03-26T01:15:03.565Z,67.97
2023-03-26T01:15:59.147Z,67.97
2023-03-26T01:16:54.648Z,68.08
2023-03-26T01:17:50.198Z,67.97
2023-03-26T01:18:45.736Z,67.97
2023-03-26T01:19:41.278Z,68.69
2023-03-26T01:20:36.834Z,68.38
2023-03-26T01:21:32.370Z,68.69
2023-03-26T01:22:27.924Z,68.69
2023-03-26T01:23:23.562Z,68.69
2023-03-26T01:24:19.029Z,68.18
2023-03-26T01:25:14.565Z,68.18
2023-03-26T01:26:10.113Z,68.28
2023-03-26T01:27:06.690Z,68.28
2023-03-26T01:28:02.692Z,68.90
2023-03-26T01:28:58.245Z,67.97
2023-03-26T01:29:53.788Z,69.10
2023-03-26T01:30:49.829Z,68.59
2023-03-26T01:31:45.372Z,69.10
2023-03-26T01:32:40.994Z,68.49
2023-03-26T01:33:36.531Z,68.59
2023-03-26T01:34:32.477Z,69.10
2023-03-26T01:35:28.508Z,68.90
2023-03-26T01:36:24.066Z,69.31
2023-03-26T01:37:19.615Z,68.90
2023-03-26T01:38:15.631Z,69.31
2023-03-26T01:39:11.219Z,69.10
2023-03-26T01:40:07.265Z,69.20
2023-03-26T01:41:02.782Z,69.20
2023-03-26T01:41:58.334Z,69.00
2023-03-26T01:42:53.876Z,69.31
2023-03-26T01:43:49.423Z,69.00
2023-03-26T01:44:44.966Z,69.20
2023-03-26T01:45:40.520Z,69.31
2023-03-26T01:46:36.099Z,69.20
2023-03-26T01:47:31.617Z,69.51
2023-03-26T01:48:27.154Z,69.20
2023-03-26T01:49:22.708Z,69.10
2023-03-26T01:50:18.252Z,69.65
2023-03-26T01:51:14.262Z,69.44
2023-03-26T01:52:09.837Z,69.41
2023-03-26T01:53:13.023Z,69.00
2023-03-26T01:54:08.584Z,69.31
2023-03-26T01:55:04.127Z,69.82
2023-03-26T01:55:59.697Z,69.20
2023-03-26T01:56:56.238Z,70.47
2023-03-26T01:57:52.261Z,70.06
2023-03-26T01:58:47.812Z,70.16
2023-03-26T01:59:44.371Z,69.85
2023-03-26T02:00:40.386Z,70.47
2023-03-26T02:01:36.489Z,70.06
2023-03-26T02:02:32.053Z,69.34
2023-03-26T02:03:27.568Z,69.03
2023-03-26T02:04:23.066Z,70.03
2023-03-26T02:05:18.631Z,70.36
2023-03-26T02:06:14.184Z,70.06
2023-03-26T02:07:09.734Z,70.16
2023-03-26T02:08:05.758Z,70.16
2023-03-26T02:09:01.780Z,69.65
2023-03-26T02:09:57.368Z,69.75
2023-03-26T02:10:52.938Z,69.75
2023-03-26T02:11:48.490Z,70.16
2023-03-26T02:12:51.176Z,69.75
2023-03-26T02:13:46.752Z,69.85
2023-03-26T02:14:49.924Z,70.16
2023-03-26T02:15:45.945Z,69.95
2023-03-26T02:16:48.646Z,70.16
2023-03-26T02:17:52.502Z,69.65
2023-03-26T02:18:47.858Z,70.26
2023-03-26T02:19:43.426Z,69.95
2023-03-26T02:20:47.611Z,70.50
2023-03-26T02:21:43.625Z,70.26
2023-03-26T02:22:39.653Z,70.16
2023-03-26T02:23:35.198Z,70.16
2023-03-26T02:24:30.748Z,70.36
2023-03-26T02:25:26.345Z,69.85
2023-03-26T02:26:22.858Z,69.34
2023-03-26T02:27:18.911Z,69.54
2023-03-26T02:28:14.434Z,69.34
2023-03-26T02:29:09.999Z,69.37
2023-03-26T02:30:05.557Z,68.93
2023-03-26T02:31:01.098Z,70.09
2023-03-26T02:31:56.667Z,69.34
2023-03-26T02:32:52.320Z,69.57
2023-03-26T02:33:47.834Z,69.57
2023-03-26T02:34:43.283Z,69.78
2023-03-26T02:35:38.930Z,69.06
2023-03-26T02:36:34.999Z,69.17
2023-03-26T02:37:30.444Z,69.68
2023-03-26T02:38:15.136Z,69.47
2023-03-26T02:39:10.684Z,69.78
2023-03-26T02:40:06.228Z,69.17
2023-03-26T02:41:02.254Z,70.19
2023-03-26T02:41:57.805Z,69.98
2023-03-26T02:42:54.385Z,70.29
2023-03-26T02:43:50.383Z,70.19
2023-03-26T02:44:45.932Z,70.19
2023-03-26T02:45:41.986Z,70.40
2023-03-26T02:46:37.964Z,70.09
2023-03-26T02:47:33.550Z,69.98
2023-03-26T02:48:29.055Z,70.19
2023-03-26T02:49:26.171Z,70.19
2023-03-26T02:50:21.667Z,70.19
2023-03-26T02:51:17.205Z,69.98
2023-03-26T02:52:12.775Z,70.50
2023-03-26T02:53:08.322Z,70.09
2023-03-26T02:54:03.860Z,69.98
2023-03-26T02:54:59.405Z,70.40
2023-03-26T02:55:55.086Z,70.40
2023-03-26T02:56:50.556Z,70.19
2023-03-26T02:57:46.058Z,70.70
2023-03-26T02:58:41.632Z,70.29
2023-03-26T02:59:37.638Z,70.60
2023-03-26T03:00:33.692Z,70.19
2023-03-26T03:01:29.247Z,70.40
2023-03-26T03:02:24.889Z,69.98
2023-03-26T03:03:21.356Z,70.19
2023-03-26T03:04:17.371Z,70.29
2023-03-26T03:05:13.403Z,70.81
2023-03-26T03:06:09.443Z,70.50
2023-03-26T03:07:04.984Z,70.09
2023-03-26T03:08:00.530Z,70.81
2023-03-26T03:08:56.548Z,70.70
2023-03-26T03:09:52.569Z,70.19
2023-03-26T03:10:48.131Z,70.40
2023-03-26T03:11:43.700Z,70.40
2023-03-26T03:12:39.251Z,70.50
2023-03-26T03:13:35.271Z,70.50
2023-03-26T03:14:30.845Z,70.50
2023-03-26T03:15:26.374Z,70.60
2023-03-26T03:16:22.437Z,70.29
2023-03-26T03:17:17.969Z,70.40
2023-03-26T03:18:13.512Z,70.29
2023-03-26T03:19:09.527Z,70.40
2023-03-26T03:20:05.105Z,70.50
2023-03-26T03:21:00.658Z,70.50
2023-03-26T03:21:56.209Z,70.50
2023-03-26T03:22:51.742Z,70.81
2023-03-26T03:23:47.499Z,70.81
2023-03-26T03:24:43.041Z,70.29
2023-03-26T03:25:38.599Z,70.29
2023-03-26T03:26:34.177Z,70.29
2023-03-26T03:27:29.701Z,70.81
2023-03-26T03:28:25.736Z,70.81
2023-03-26T03:29:21.757Z,71.22
2023-03-26T03:30:17.895Z,71.32
2023-03-26T03:31:13.445Z,70.40
2023-03-26T03:32:08.876Z,70.09
2023-03-26T03:33:04.460Z,70.40
2023-03-26T03:33:59.978Z,70.19
2023-03-26T03:34:55.530Z,70.50
2023-03-26T03:35:51.136Z,70.40
2023-03-26T03:36:47.119Z,70.70
2023-03-26T03:37:43.685Z,70.81
2023-03-26T03:38:40.250Z,70.81
2023-03-26T03:39:36.272Z,70.70
2023-03-26T03:40:31.851Z,70.81
2023-03-26T03:41:27.403Z,70.81
2023-03-26T03:42:23.408Z,70.70
2023-03-26T03:43:18.976Z,70.60
2023-03-26T03:44:14.513Z,70.29
2023-03-26T03:45:10.066Z,70.40
2023-03-26T03:46:05.678Z,70.81
2023-03-26T03:47:01.638Z,70.12
2023-03-26T03:47:57.205Z,70.29
2023-03-26T03:48:52.737Z,70.81
2023-03-26T03:49:48.745Z,70.50
2023-03-26T03:50:44.290Z,70.70
2023-03-26T03:51:39.840Z,70.53
2023-03-26T03:52:35.400Z,70.50
2023-03-26T03:53:31.953Z,70.73
2023-03-26T03:54:27.966Z,70.84
2023-03-26T03:55:23.514Z,70.64
2023-03-26T03:56:19.332Z,70.32
2023-03-26T03:57:14.633Z,70.73
2023-03-26T03:58:10.223Z,70.73
2023-03-26T03:59:05.790Z,70.12
2023-03-26T04:00:01.805Z,70.32
2023-03-26T04:00:57.337Z,70.84
2023-03-26T04:01:53.404Z,70.64
2023-03-26T04:02:48.989Z,70.29
2023-03-26T04:03:44.552Z,70.73
2023-03-26T04:04:40.076Z,70.50
2023-03-26T04:05:36.055Z,70.84
2023-03-26T04:06:31.608Z,70.32
2023-03-26T04:07:27.160Z,70.53
2023-03-26T04:08:23.709Z,70.43
2023-03-26T04:09:19.251Z,70.22
2023-03-26T04:10:14.797Z,70.70
2023-03-26T04:11:10.350Z,70.64
2023-03-26T04:12:05.891Z,70.29
2023-03-26T04:13:01.440Z,70.53
2023-03-26T04:13:56.999Z,70.64
2023-03-26T04:14:52.548Z,71.35
2023-03-26T04:15:48.130Z,70.84
2023-03-26T04:16:43.645Z,70.70
2023-03-26T04:17:39.254Z,70.53
2023-03-26T04:18:34.733Z,70.84
2023-03-26T04:19:30.280Z,70.84
2023-03-26T04:20:25.829Z,70.60
2023-03-26T04:21:21.386Z,70.29
2023-03-26T04:22:16.936Z,70.73
2023-03-26T04:23:12.495Z,71.15
2023-03-26T04:24:08.097Z,70.32
2023-03-26T04:25:03.638Z,70.73
2023-03-26T04:25:59.288Z,70.53
2023-03-26T04:26:55.305Z,70.43
2023-03-26T04:27:50.842Z,70.73
2023-03-26T04:28:46.519Z,70.73
2023-03-26T04:29:41.953Z,70.73
2023-03-26T04:30:39.046Z,70.12
2023-03-26T04:31:34.641Z,70.43
2023-03-26T04:32:30.260Z,70.43
2023-03-26T04:33:25.723Z,70.84
2023-03-26T04:34:21.284Z,70.73
2023-03-26T04:35:16.840Z,70.73
2023-03-26T04:36:12.435Z,70.32
2023-03-26T04:37:08.946Z,70.43
2023-03-26T04:38:05.010Z,70.84
2023-03-26T04:39:00.510Z,70.64
2023-03-26T04:39:56.081Z,70.53
2023-03-26T04:40:51.609Z,70.29
2023-03-26T04:41:47.149Z,70.43
2023-03-26T04:42:31.816Z,70.64
2023-03-26T04:43:27.364Z,70.43
2023-03-26T04:44:22.914Z,70.22
2023-03-26T04:45:18.484Z,70.84
2023-03-26T04:46:14.065Z,70.84
2023-03-26T04:46:58.720Z,71.35
2023-03-26T04:47:54.255Z,70.64
2023-03-26T04:48:50.281Z,70.53
2023-03-26T04:49:45.816Z,70.43
2023-03-26T04:50:41.833Z,70.32
2023-03-26T04:51:37.398Z,70.43
2023-03-26T04:52:32.969Z,70.40
2023-03-26T04:53:28.957Z,70.12
2023-03-26T04:54:24.974Z,70.84
2023-03-26T04:55:21.006Z,70.43
2023-03-26T04:56:16.561Z,70.32
2023-03-26T04:57:12.326Z,70.43
2023-03-26T04:58:08.787Z,70.60
2023-03-26T04:59:04.800Z,70.19
2023-03-26T05:00:11.622Z,70.64
2023-03-26T05:01:18.931Z,70.64
2023-03-26T05:02:15.472Z,70.94
2023-03-26T05:03:11.012Z,70.32
2023-03-26T05:04:06.651Z,70.73
2023-03-26T05:05:02.186Z,70.43
2023-03-26T05:05:57.706Z,71.15
2023-03-26T05:06:53.272Z,70.84
2023-03-26T05:07:37.950Z,70.43
2023-03-26T05:08:33.513Z,70.32
2023-03-26T05:09:29.537Z,70.64
2023-03-26T05:10:25.080Z,71.15
2023-03-26T05:11:21.099Z,70.53
2023-03-26T05:12:16.661Z,70.22
2023-03-26T05:13:12.227Z,70.53
2023-03-26T05:14:07.753Z,70.84
2023-03-26T05:15:03.766Z,70.73
2023-03-26T05:15:59.328Z,70.73
2023-03-26T05:16:54.860Z,70.64
2023-03-26T05:17:50.456Z,70.43
2023-03-26T05:18:45.992Z,70.43
2023-03-26T05:19:41.579Z,70.64
2023-03-26T05:20:37.096Z,70.32
2023-03-26T05:21:32.657Z,70.32
2023-03-26T05:22:28.197Z,70.64
2023-03-26T05:23:23.779Z,70.64
2023-03-26T05:24:19.832Z,70.64
2023-03-26T05:25:15.854Z,70.43
2023-03-26T05:26:11.377Z,70.32
2023-03-26T05:27:06.922Z,70.53
2023-03-26T05:28:03.482Z,70.22
2023-03-26T05:28:59.056Z,70.32
2023-03-26T05:29:54.605Z,70.22
2023-03-26T05:30:50.658Z,70.22
2023-03-26T05:31:46.198Z,70.43
2023-03-26T05:32:41.808Z,70.32
2023-03-26T05:33:37.359Z,70.22
2023-03-26T05:34:32.865Z,70.64
2023-03-26T05:35:28.441Z,70.64
2023-03-26T05:36:23.969Z,70.84
2023-03-26T05:37:19.525Z,70.32
2023-03-26T05:38:15.077Z,70.53
2023-03-26T05:39:10.640Z,70.32
2023-03-26T05:40:06.185Z,70.43
2023-03-26T05:41:01.733Z,70.12
2023-03-26T05:42:04.455Z,70.43
2023-03-26T05:42:59.994Z,70.22
2023-03-26T05:43:56.016Z,70.22
2023-03-26T05:44:51.560Z,70.64
2023-03-26T05:45:47.136Z,70.22
2023-03-26T05:46:42.670Z,70.32
2023-03-26T05:47:38.297Z,70.19
2023-03-26T05:48:34.289Z,69.98
2023-03-26T05:49:29.849Z,70.02
2023-03-26T05:50:25.393Z,69.68
2023-03-26T05:51:20.949Z,69.98
2023-03-26T05:52:17.496Z,69.98
2023-03-26T05:53:13.055Z,69.98
2023-03-26T05:54:08.625Z,69.98
2023-03-26T05:55:04.165Z,70.53
2023-03-26T05:55:59.734Z,70.19
2023-03-26T05:56:55.295Z,70.40
2023-03-26T05:57:50.825Z,70.29
2023-03-26T05:58:46.831Z,69.47
2023-03-26T05:59:42.862Z,70.09
2023-03-26T06:00:38.410Z,69.98
2023-03-26T06:01:33.954Z,70.09
2023-03-26T06:02:18.661Z,70.29
2023-03-26T06:03:14.427Z,69.98
2023-03-26T06:04:09.849Z,70.50
2023-03-26T06:05:05.843Z,69.06
2023-03-26T06:06:01.842Z,69.89
2023-03-26T06:06:57.409Z,69.17
2023-03-26T06:07:52.937Z,69.98
2023-03-26T06:08:48.493Z,69.17
2023-03-26T06:09:44.057Z,69.37
2023-03-26T06:10:39.624Z,69.17
2023-03-26T06:11:35.661Z,69.57
2023-03-26T06:12:31.661Z,69.89
2023-03-26T06:13:27.205Z,70.60
2023-03-26T06:14:22.754Z,70.70
2023-03-26T06:15:18.307Z,70.19
2023-03-26T06:16:27.797Z,70.29
2023-03-26T06:17:09.391Z,70.29
2023-03-26T06:18:04.956Z,70.19
2023-03-26T06:19:11.937Z,70.60
2023-03-26T06:20:09.220Z,70.09
2023-03-26T06:21:02.880Z,70.09
2023-03-26T06:21:58.460Z,70.09
2023-03-26T06:22:54.053Z,70.57
2023-03-26T06:23:50.052Z,70.16
2023-03-26T06:24:46.075Z,70.40
2023-03-26T06:25:42.091Z,69.78
2023-03-26T06:26:38.112Z,69.34
2023-03-26T06:27:34.145Z,69.37
2023-03-26T06:28:38.435Z,69.98
2023-03-26T06:29:34.497Z,69.78
2023-03-26T06:30:30.550Z,69.54
2023-03-26T06:31:26.568Z,69.54
2023-03-26T06:32:22.714Z,69.34
2023-03-26T06:33:07.661Z,69.24
2023-03-26T06:34:14.995Z,69.54
2023-03-26T06:35:11.079Z,69.44
2023-03-26T06:36:07.182Z,69.54
2023-03-26T06:37:04.127Z,69.54
2023-03-26T06:38:00.394Z,69.34
2023-03-26T06:38:45.473Z,69.24
2023-03-26T06:39:42.471Z,69.44
2023-03-26T06:40:38.493Z,69.34
2023-03-26T06:41:34.592Z,69.34
2023-03-26T06:43:07.121Z,69.34
2023-03-26T06:43:28.720Z,68.93
2023-03-26T06:44:24.812Z,69.24
2023-03-26T06:45:32.063Z,69.34
2023-03-26T06:46:28.341Z,69.34
2023-03-26T06:47:24.615Z,68.93
2023-03-26T06:48:29.186Z,69.13
2023-03-26T06:49:23.730Z,69.44
2023-03-26T06:50:19.790Z,69.34
2023-03-26T06:51:15.852Z,69.03
2023-03-26T06:52:14.020Z,69.03
2023-03-26T06:53:10.031Z,69.13
2023-03-26T06:54:08.104Z,69.03
2023-03-26T06:55:04.117Z,69.03
2023-03-26T06:56:00.180Z,68.79
2023-03-26T06:56:57.357Z,68.69
2023-03-26T06:57:54.296Z,68.59
2023-03-26T06:58:51.449Z,68.62
2023-03-26T06:59:36.365Z,68.90
2023-03-26T07:00:32.441Z,68.38
2023-03-26T07:01:42.079Z,68.18
2023-03-26T07:02:38.093Z,68.08
2023-03-26T07:03:23.267Z,68.38
2023-03-26T07:04:19.259Z,68.18
2023-03-26T07:05:16.517Z,67.87
2023-03-26T07:06:13.353Z,68.18
2023-03-26T07:07:10.370Z,68.28
2023-03-26T07:08:07.517Z,67.77
2023-03-26T07:09:04.618Z,68.08
2023-03-26T07:10:01.593Z,68.28
2023-03-26T07:10:47.954Z,68.18
2023-03-26T07:11:43.893Z,68.05
2023-03-26T07:12:41.980Z,67.84
2023-03-26T07:13:39.011Z,68.28
2023-03-26T07:14:35.322Z,68.18
2023-03-26T07:15:31.108Z,68.15
2023-03-26T07:16:28.543Z,68.46
2023-03-26T07:17:25.267Z,68.46
2023-03-26T07:18:21.304Z,68.15
2023-03-26T07:19:06.586Z,67.84
2023-03-26T07:20:03.572Z,67.84
2023-03-26T07:21:20.340Z,68.15
2023-03-26T07:22:17.279Z,67.60
2023-03-26T07:23:24.685Z,66.89
2023-03-26T07:24:20.787Z,67.71
2023-03-26T07:25:16.757Z,67.10
2023-03-26T07:26:12.972Z,67.10
2023-03-26T07:27:08.906Z,66.89
2023-03-26T07:28:05.119Z,67.10
2023-03-26T07:29:13.454Z,67.19
2023-03-26T07:30:09.542Z,67.07
2023-03-26T07:31:16.728Z,66.99
2023-03-26T07:32:12.906Z,67.16
2023-03-26T07:33:10.758Z,66.55
2023-03-26T07:34:18.770Z,66.66
2023-03-26T07:35:15.768Z,65.84
2023-03-26T07:36:11.902Z,66.25
2023-03-26T07:36:57.133Z,65.94
2023-03-26T07:37:42.324Z,65.33
2023-03-26T07:38:38.574Z,65.43
2023-03-26T07:39:34.621Z,65.53
2023-03-26T07:40:30.685Z,65.33
2023-03-26T07:41:26.875Z,65.73
2023-03-26T07:42:23.846Z,65.12
2023-03-26T07:43:20.884Z,65.22
2023-03-26T07:44:17.556Z,65.02
2023-03-26T07:45:02.573Z,65.02
2023-03-26T07:45:58.840Z,64.61
2023-03-26T07:46:55.780Z,64.61
2023-03-26T07:47:52.927Z,64.51
2023-03-26T07:48:49.141Z,64.92
2023-03-26T07:49:45.236Z,65.02
2023-03-26T07:50:42.252Z,64.61
2023-03-26T07:51:38.422Z,64.71
2023-03-26T07:52:34.395Z,64.51
2023-03-26T07:53:32.192Z,64.81
2023-03-26T07:54:27.865Z,64.51
2023-03-26T07:55:12.986Z,64.92
2023-03-26T07:56:09.155Z,64.71
2023-03-26T07:57:05.275Z,64.71
2023-03-26T07:58:02.395Z,64.30
2023-03-26T07:58:58.367Z,64.61
2023-03-26T07:59:54.296Z,64.71
2023-03-26T08:00:50.573Z,63.89
2023-03-26T08:01:46.632Z,64.61
2023-03-26T08:02:42.759Z,64.10
2023-03-26T08:03:38.800Z,64.61
2023-03-26T08:04:34.932Z,64.81
2023-03-26T08:05:30.829Z,64.20
2023-03-26T08:06:28.086Z,64.20
2023-03-26T08:07:25.003Z,64.10
2023-03-26T08:08:21.101Z,64.10
2023-03-26T08:09:17.134Z,64.61
2023-03-26T08:10:13.208Z,63.69
2023-03-26T08:11:09.277Z,64.10
2023-03-26T08:12:05.957Z,64.00
2023-03-26T08:13:03.178Z,64.40
2023-03-26T08:14:10.485Z,64.61
2023-03-26T08:15:06.479Z,64.37
2023-03-26T08:16:03.801Z,64.51
2023-03-26T08:16:59.696Z,64.51
2023-03-26T08:17:55.774Z,64.30
2023-03-26T08:19:04.048Z,64.61
2023-03-26T08:20:00.330Z,63.69
2023-03-26T08:20:58.575Z,63.89
2023-03-26T08:21:54.704Z,64.30
2023-03-26T08:22:41.078Z,64.20
2023-03-26T08:23:37.631Z,64.51
2023-03-26T08:24:33.693Z,63.69
2023-03-26T08:25:19.151Z,64.20
2023-03-26T08:26:22.699Z,63.69
2023-03-26T08:27:18.580Z,64.20
2023-03-26T08:28:27.021Z,64.71
2023-03-26T08:29:24.194Z,64.81
2023-03-26T08:30:20.362Z,64.00
2023-03-26T08:31:16.876Z,63.79
2023-03-26T08:32:12.775Z,63.79
2023-03-26T08:33:09.116Z,64.81
2023-03-26T08:34:04.944Z,64.61
2023-03-26T08:35:00.671Z,64.40
2023-03-26T08:35:57.817Z,64.58
2023-03-26T08:36:54.107Z,64.30
2023-03-26T08:37:50.077Z,64.51
2023-03-26T08:38:49.342Z,63.69
2023-03-26T08:39:47.366Z,63.96
2023-03-26T08:40:44.759Z,64.48
2023-03-26T08:41:40.891Z,64.61
2023-03-26T08:42:37.910Z,64.17
2023-03-26T08:43:34.979Z,64.27
2023-03-26T08:44:31.995Z,64.51
2023-03-26T08:45:27.605Z,63.89
2023-03-26T08:46:23.242Z,64.20
2023-03-26T08:47:20.792Z,63.66
2023-03-26T08:48:19.205Z,64.07
2023-03-26T08:49:07.647Z,63.15
2023-03-26T08:50:03.713Z,63.25
2023-03-26T08:51:00.130Z,63.25
2023-03-26T08:51:57.213Z,63.56
2023-03-26T08:52:54.411Z,63.35
2023-03-26T08:53:50.192Z,63.35
2023-03-26T08:54:48.780Z,63.25
2023-03-26T08:55:34.671Z,63.43
2023-03-26T08:56:32.765Z,63.32
2023-03-26T08:57:30.521Z,63.22
2023-03-26T08:58:28.636Z,63.73
2023-03-26T08:59:15.654Z,63.22
2023-03-26T09:00:02.826Z,63.73
2023-03-26T09:00:57.980Z,63.43
2023-03-26T09:01:44.161Z,63.12
2023-03-26T09:02:40.412Z,63.19
2023-03-26T09:03:38.343Z,63.12
2023-03-26T09:04:33.967Z,63.29
2023-03-26T09:05:31.341Z,63.19
2023-03-26T09:06:27.514Z,63.43
2023-03-26T09:07:24.500Z,62.81
2023-03-26T09:08:24.085Z,62.51
2023-03-26T09:09:22.886Z,62.92
2023-03-26T09:10:20.640Z,62.68
2023-03-26T09:11:16.871Z,62.20
2023-03-26T09:12:15.504Z,62.92
2023-03-26T09:13:11.072Z,62.61
2023-03-26T09:13:56.174Z,62.20
2023-03-26T09:14:52.298Z,62.30
2023-03-26T09:15:50.451Z,61.99
2023-03-26T09:16:36.476Z,62.10
2023-03-26T09:17:32.172Z,61.90
2023-03-26T09:18:28.385Z,62.71
2023-03-26T09:19:25.315Z,62.51
2023-03-26T09:20:22.923Z,62.07
2023-03-26T09:21:20.107Z,62.37
2023-03-26T09:22:16.125Z,61.90
2023-03-26T09:23:14.018Z,62.17
2023-03-26T09:24:09.454Z,61.35
2023-03-26T09:25:06.553Z,61.35
2023-03-26T09:25:51.513Z,61.56
2023-03-26T09:26:40.547Z,60.74
2023-03-26T09:27:37.201Z,60.74
2023-03-26T09:28:35.714Z,61.15
2023-03-26T09:29:32.940Z,60.94
2023-03-26T09:30:18.889Z,60.85
2023-03-26T09:31:05.480Z,60.64
2023-03-26T09:32:00.191Z,60.33
2023-03-26T09:32:56.282Z,60.13
2023-03-26T09:33:52.513Z,60.53
2023-03-26T09:34:39.341Z,60.44
2023-03-26T09:35:35.540Z,59.82
2023-03-26T09:36:20.665Z,60.13
2023-03-26T09:37:06.834Z,60.13
2023-03-26T09:38:04.757Z,60.13
2023-03-26T09:39:02.055Z,60.13
2023-03-26T09:39:58.005Z,60.13
2023-03-26T09:40:55.072Z,60.03
2023-03-26T09:41:51.909Z,59.80
2023-03-26T09:42:51.370Z,60.30
2023-03-26T09:43:47.506Z,60.00
2023-03-26T09:44:44.624Z,59.89
2023-03-26T09:45:40.591Z,59.59
2023-03-26T09:46:37.503Z,58.98
2023-03-26T09:47:35.794Z,58.37
2023-03-26T09:48:32.691Z,58.47
2023-03-26T09:49:30.749Z,59.39
2023-03-26T09:50:28.818Z,58.57
2023-03-26T09:51:26.762Z,58.67
2023-03-26T09:52:21.923Z,59.36
2023-03-26T09:53:18.886Z,59.39
2023-03-26T09:54:15.052Z,59.36
2023-03-26T09:55:11.098Z,58.34
2023-03-26T09:56:08.168Z,58.57
2023-03-26T09:57:05.356Z,58.54
2023-03-26T09:58:01.375Z,58.44
2023-03-26T09:58:58.334Z,58.14
2023-03-26T09:59:55.490Z,58.44
2023-03-26T10:00:54.225Z,58.23
2023-03-26T10:01:51.276Z,58.44
2023-03-26T10:02:48.505Z,59.05
2023-03-26T10:03:44.369Z,57.90
2023-03-26T10:04:40.554Z,58.51
2023-03-26T10:05:36.510Z,58.11
2023-03-26T10:06:33.407Z,58.11
2023-03-26T10:07:30.688Z,58.11
2023-03-26T10:08:16.572Z,57.90
2023-03-26T10:09:01.758Z,58.01
2023-03-26T10:09:57.882Z,57.90
2023-03-26T10:10:55.070Z,58.51
2023-03-26T10:11:50.928Z,57.39
2023-03-26T10:13:11.579Z,57.50
2023-03-26T10:13:47.533Z,58.01
2023-03-26T10:14:44.164Z,58.11
2023-03-26T10:15:29.345Z,58.62
2023-03-26T10:16:25.381Z,58.28
2023-03-26T10:17:22.444Z,58.18
2023-03-26T10:18:27.445Z,58.08
2023-03-26T10:19:15.948Z,58.18
2023-03-26T10:20:14.392Z,58.18
2023-03-26T10:21:10.485Z,58.89
2023-03-26T10:22:07.669Z,57.17
2023-03-26T10:23:05.672Z,57.98
2023-03-26T10:24:02.024Z,57.67
2023-03-26T10:24:59.843Z,57.67
2023-03-26T10:25:57.156Z,57.47
2023-03-26T10:27:09.074Z,57.67
2023-03-26T10:27:53.112Z,57.78
2023-03-26T10:28:38.170Z,57.47
2023-03-26T10:29:34.182Z,57.26
2023-03-26T10:30:31.598Z,57.06
2023-03-26T10:31:27.633Z,57.37
2023-03-26T10:32:13.225Z,56.65
2023-03-26T10:33:10.433Z,57.37
2023-03-26T10:34:07.593Z,57.47
2023-03-26T10:35:03.596Z,56.73
2023-03-26T10:35:59.599Z,57.04
2023-03-26T10:36:57.794Z,57.34
2023-03-26T10:37:54.059Z,57.44
2023-03-26T10:38:50.944Z,57.14
2023-03-26T10:39:39.005Z,57.34
2023-03-26T10:40:33.943Z,57.04
2023-03-26T10:41:30.034Z,57.44
2023-03-26T10:42:26.843Z,56.93
2023-03-26T10:43:14.514Z,57.75
2023-03-26T10:44:11.040Z,57.24
2023-03-26T10:45:08.807Z,57.14
2023-03-26T10:46:06.511Z,56.22
2023-03-26T10:47:03.465Z,56.52
2023-03-26T10:47:59.646Z,56.12
2023-03-26T10:48:56.872Z,56.73
2023-03-26T10:49:53.171Z,57.11
2023-03-26T10:50:50.435Z,56.22
2023-03-26T10:51:46.696Z,57.24
2023-03-26T10:52:44.060Z,56.02
2023-03-26T10:53:39.743Z,55.81
2023-03-26T10:54:37.016Z,55.99
2023-03-26T10:55:33.138Z,56.02
2023-03-26T10:56:40.523Z,56.09
2023-03-26T10:57:37.762Z,55.81
2023-03-26T10:58:49.407Z,56.02
2023-03-26T10:59:30.065Z,56.20
2023-03-26T11:00:26.001Z,55.68
2023-03-26T11:01:11.198Z,56.09
2023-03-26T11:02:07.041Z,55.89
2023-03-26T11:03:05.688Z,55.89
2023-03-26T11:04:02.715Z,56.20
2023-03-26T11:05:01.497Z,55.71
2023-03-26T11:05:57.516Z,55.79
2023-03-26T11:06:54.533Z,55.71
2023-03-26T11:07:50.625Z,55.79
2023-03-26T11:08:46.841Z,55.89
2023-03-26T11:09:42.872Z,55.99
2023-03-26T11:10:40.067Z,56.09
2023-03-26T11:11:38.543Z,56.40
2023-03-26T11:12:35.659Z,56.27
2023-03-26T11:13:32.754Z,55.99
2023-03-26T11:14:35.277Z,56.29
2023-03-26T11:15:40.340Z,56.16
2023-03-26T11:16:37.357Z,55.96
2023-03-26T11:17:39.667Z,55.76
2023-03-26T11:18:33.839Z,55.25
2023-03-26T11:19:43.043Z,54.85
2023-03-26T11:20:40.153Z,54.87
2023-03-26T11:21:37.184Z,55.25
2023-03-26T11:22:35.273Z,55.55
2023-03-26T11:23:31.457Z,55.15
2023-03-26T11:24:29.004Z,55.15
2023-03-26T11:25:26.517Z,54.94
2023-03-26T11:26:23.755Z,54.64
2023-03-26T11:27:22.609Z,54.54
2023-03-26T11:28:17.414Z,55.25
2023-03-26T11:29:31.468Z,55.46
2023-03-26T11:30:12.366Z,55.25
2023-03-26T11:31:22.595Z,55.05
2023-03-26T11:32:08.955Z,54.74
2023-03-26T11:32:55.987Z,54.94
2023-03-26T11:33:54.843Z,54.74
2023-03-26T11:34:51.261Z,55.86
2023-03-26T11:35:47.102Z,55.25
2023-03-26T11:36:44.088Z,54.94
2023-03-26T11:37:40.268Z,54.85
2023-03-26T11:38:37.502Z,54.54
2023-03-26T11:39:33.319Z,55.35
2023-03-26T11:40:31.533Z,55.35
2023-03-26T11:41:27.551Z,54.74
2023-03-26T11:42:24.924Z,54.64
2023-03-26T11:43:22.042Z,54.54
2023-03-26T11:44:08.221Z,54.74
2023-03-26T11:45:04.339Z,54.74
2023-03-26T11:46:00.450Z,55.05
2023-03-26T11:46:57.362Z,55.15
2023-03-26T11:47:53.752Z,55.05
2023-03-26T11:48:50.551Z,54.74
2023-03-26T11:49:46.655Z,54.54
2023-03-26T11:50:44.818Z,54.64
2023-03-26T11:51:41.842Z,54.51
2023-03-26T11:52:51.187Z,54.85
2023-03-26T11:53:47.383Z,54.64
2023-03-26T11:54:44.666Z,54.64
2023-03-26T11:55:44.187Z,55.05
2023-03-26T11:56:40.238Z,55.02
2023-03-26T11:57:36.547Z,54.92
2023-03-26T11:58:34.096Z,54.85
2023-03-26T11:59:30.213Z,55.15
2023-03-26T12:00:26.685Z,54.21
2023-03-26T12:01:22.691Z,54.54
2023-03-26T12:02:18.766Z,54.33